sensor_id;sensor_type;location;lat;lon;timestamp;temperature;humidity
69776;DHT22;57049;51.450;-2.516;2023-08-24T00:00:30;17.42;91.61
69776;DHT22;57049;51.450;-2.516;2023-08-24T00:02:57;17.40;91.81
69776;DHT22;57049;51.450;-2.516;2023-08-24T00:05:23;17.38;91.62
69776;DHT22;57049;51.450;-2.516;2023-08-24T00:07:49;17.30;91.80
69776;DHT22;57049;51.450;-2.516;2023-08-24T00:10:14;17.29;91.84
69776;DHT22;57049;51.450;-2.516;2023-08-24T00:12:40;17.38;91.60
69776;DHT22;57049;51.450;-2.516;2023-08-24T00:15:09;17.32;91.61
69776;DHT22;57049;51.450;-2.516;2023-08-24T00:17:37;17.29;91.71
69776;DHT22;57049;51.450;-2.516;2023-08-24T00:20:04;17.25;92.04
69776;DHT22;57049;51.450;-2.516;2023-08-24T00:22:30;17.20;92.07
69776;DHT22;57049;51.450;-2.516;2023-08-24T00:24:56;17.20;92.12
69776;DHT22;57049;51.450;-2.516;2023-08-24T00:27:21;17.18;92.30
69776;DHT22;57049;51.450;-2.516;2023-08-24T00:29:46;17.22;92.30
69776;DHT22;57049;51.450;-2.516;2023-08-24T00:32:12;17.42;91.65
69776;DHT22;57049;51.450;-2.516;2023-08-24T00:34:37;17.40;91.73
69776;DHT22;57049;51.450;-2.516;2023-08-24T00:37:03;17.33;91.82
69776;DHT22;57049;51.450;-2.516;2023-08-24T00:39:28;17.32;91.95
69776;DHT22;57049;51.450;-2.516;2023-08-24T00:41:54;17.29;92.00
69776;DHT22;57049;51.450;-2.516;2023-08-24T00:44:20;17.32;91.86
69776;DHT22;57049;51.450;-2.516;2023-08-24T00:46:45;17.23;92.17
69776;DHT22;57049;51.450;-2.516;2023-08-24T00:49:11;17.26;91.98
69776;DHT22;57049;51.450;-2.516;2023-08-24T00:51:37;17.22;92.01
69776;DHT22;57049;51.450;-2.516;2023-08-24T00:54:03;17.20;92.05
69776;DHT22;57049;51.450;-2.516;2023-08-24T00:56:29;17.16;92.20
69776;DHT22;57049;51.450;-2.516;2023-08-24T00:58:56;17.11;92.36
69776;DHT22;57049;51.450;-2.516;2023-08-24T01:01:21;17.04;92.40
69776;DHT22;57049;51.450;-2.516;2023-08-24T01:03:47;16.99;92.59
69776;DHT22;57049;51.450;-2.516;2023-08-24T01:06:13;16.91;92.72
69776;DHT22;57049;51.450;-2.516;2023-08-24T01:08:38;16.89;92.87
69776;DHT22;57049;51.450;-2.516;2023-08-24T01:16:29;16.91;92.73
69776;DHT22;57049;51.450;-2.516;2023-08-24T01:18:57;16.92;92.83
69776;DHT22;57049;51.450;-2.516;2023-08-24T01:21:26;16.88;92.94
69776;DHT22;57049;51.450;-2.516;2023-08-24T01:24:13;16.85;92.87
69776;DHT22;57049;51.450;-2.516;2023-08-24T01:26:43;16.81;93.03
69776;DHT22;57049;51.450;-2.516;2023-08-24T01:29:09;16.77;93.01
69776;DHT22;57049;51.450;-2.516;2023-08-24T01:31:35;16.75;93.04
69776;DHT22;57049;51.450;-2.516;2023-08-24T01:34:00;16.71;93.17
69776;DHT22;57049;51.450;-2.516;2023-08-24T01:36:26;16.64;93.34
69776;DHT22;57049;51.450;-2.516;2023-08-24T01:38:59;16.63;93.54
69776;DHT22;57049;51.450;-2.516;2023-08-24T01:41:35;16.58;93.61
69776;DHT22;57049;51.450;-2.516;2023-08-24T01:44:04;16.58;93.75
69776;DHT22;57049;51.450;-2.516;2023-08-24T01:46:33;16.53;93.81
69776;DHT22;57049;51.450;-2.516;2023-08-24T01:48:59;16.51;93.83
69776;DHT22;57049;51.450;-2.516;2023-08-24T01:51:25;16.48;93.80
69776;DHT22;57049;51.450;-2.516;2023-08-24T01:53:52;16.47;93.88
69776;DHT22;57049;51.450;-2.516;2023-08-24T01:56:17;16.50;93.94
69776;DHT22;57049;51.450;-2.516;2023-08-24T01:58:43;16.48;94.03
69776;DHT22;57049;51.450;-2.516;2023-08-24T02:01:09;16.51;93.98
69776;DHT22;57049;51.450;-2.516;2023-08-24T02:03:35;16.53;93.88
69776;DHT22;57049;51.450;-2.516;2023-08-24T02:06:01;16.54;93.91
69776;DHT22;57049;51.450;-2.516;2023-08-24T02:08:26;16.53;93.94
69776;DHT22;57049;51.450;-2.516;2023-08-24T02:10:52;16.50;94.13
69776;DHT22;57049;51.450;-2.516;2023-08-24T02:13:17;16.47;94.03
69776;DHT22;57049;51.450;-2.516;2023-08-24T02:15:43;16.50;93.99
69776;DHT22;57049;51.450;-2.516;2023-08-24T02:18:08;16.50;94.16
69776;DHT22;57049;51.450;-2.516;2023-08-24T02:20:40;16.46;94.10
69776;DHT22;57049;51.450;-2.516;2023-08-24T02:23:05;16.44;94.15
69776;DHT22;57049;51.450;-2.516;2023-08-24T02:25:31;16.40;94.17
69776;DHT22;57049;51.450;-2.516;2023-08-24T02:27:57;16.38;94.15
69776;DHT22;57049;51.450;-2.516;2023-08-24T02:30:22;16.37;94.24
69776;DHT22;57049;51.450;-2.516;2023-08-24T02:32:48;16.27;94.47
69776;DHT22;57049;51.450;-2.516;2023-08-24T02:35:13;16.21;94.39
69776;DHT22;57049;51.450;-2.516;2023-08-24T02:37:39;16.18;94.58
69776;DHT22;57049;51.450;-2.516;2023-08-24T02:40:05;16.14;94.53
69776;DHT22;57049;51.450;-2.516;2023-08-24T02:42:31;16.07;94.73
69776;DHT22;57049;51.450;-2.516;2023-08-24T02:44:57;16.03;94.91
69776;DHT22;57049;51.450;-2.516;2023-08-24T02:47:23;15.97;95.00
69776;DHT22;57049;51.450;-2.516;2023-08-24T02:49:48;15.92;95.26
69776;DHT22;57049;51.450;-2.516;2023-08-24T02:52:14;15.87;95.55
69776;DHT22;57049;51.450;-2.516;2023-08-24T02:54:39;15.81;95.60
69776;DHT22;57049;51.450;-2.516;2023-08-24T02:57:05;15.81;95.65
69776;DHT22;57049;51.450;-2.516;2023-08-24T02:59:30;15.81;95.73
69776;DHT22;57049;51.450;-2.516;2023-08-24T03:01:56;15.79;95.86
69776;DHT22;57049;51.450;-2.516;2023-08-24T03:04:21;15.76;95.85
69776;DHT22;57049;51.450;-2.516;2023-08-24T03:06:47;15.78;95.81
69776;DHT22;57049;51.450;-2.516;2023-08-24T03:09:12;15.78;96.02
69776;DHT22;57049;51.450;-2.516;2023-08-24T03:11:38;15.78;95.74
69776;DHT22;57049;51.450;-2.516;2023-08-24T03:14:04;15.82;95.74
69776;DHT22;57049;51.450;-2.516;2023-08-24T03:16:29;15.79;95.81
69776;DHT22;57049;51.450;-2.516;2023-08-24T03:18:54;15.79;95.86
69776;DHT22;57049;51.450;-2.516;2023-08-24T03:21:20;15.79;95.86
69776;DHT22;57049;51.450;-2.516;2023-08-24T03:23:46;15.81;95.85
69776;DHT22;57049;51.450;-2.516;2023-08-24T03:26:12;15.81;95.86
69776;DHT22;57049;51.450;-2.516;2023-08-24T03:28:37;15.79;95.96
69776;DHT22;57049;51.450;-2.516;2023-08-24T03:31:02;15.75;96.00
69776;DHT22;57049;51.450;-2.516;2023-08-24T03:33:28;15.73;96.08
69776;DHT22;57049;51.450;-2.516;2023-08-24T03:35:54;15.69;96.15
69776;DHT22;57049;51.450;-2.516;2023-08-24T03:38:19;15.63;95.98
69776;DHT22;57049;51.450;-2.516;2023-08-24T03:40:45;15.62;96.20
69776;DHT22;57049;51.450;-2.516;2023-08-24T03:43:10;15.61;96.29
69776;DHT22;57049;51.450;-2.516;2023-08-24T03:45:36;15.58;96.25
69776;DHT22;57049;51.450;-2.516;2023-08-24T03:48:01;15.56;96.28
69776;DHT22;57049;51.450;-2.516;2023-08-24T03:50:27;15.59;96.24
69776;DHT22;57049;51.450;-2.516;2023-08-24T03:52:53;15.59;96.36
69776;DHT22;57049;51.450;-2.516;2023-08-24T03:55:20;15.65;96.32
69776;DHT22;57049;51.450;-2.516;2023-08-24T03:57:45;15.67;96.31
69776;DHT22;57049;51.450;-2.516;2023-08-24T04:00:11;15.69;96.44
69776;DHT22;57049;51.450;-2.516;2023-08-24T04:02:43;15.72;96.33
69776;DHT22;57049;51.450;-2.516;2023-08-24T04:05:09;15.75;96.24
69776;DHT22;57049;51.450;-2.516;2023-08-24T04:07:35;15.81;96.13
69776;DHT22;57049;51.450;-2.516;2023-08-24T04:10:05;15.85;96.16
69776;DHT22;57049;51.450;-2.516;2023-08-24T04:12:31;15.87;95.97
69776;DHT22;57049;51.450;-2.516;2023-08-24T04:14:57;15.87;95.97
69776;DHT22;57049;51.450;-2.516;2023-08-24T04:17:23;15.87;95.80
69776;DHT22;57049;51.450;-2.516;2023-08-24T04:19:48;15.87;95.84
69776;DHT22;57049;51.450;-2.516;2023-08-24T04:22:14;15.90;95.84
69776;DHT22;57049;51.450;-2.516;2023-08-24T04:24:40;15.92;95.82
69776;DHT22;57049;51.450;-2.516;2023-08-24T04:27:05;15.93;95.79
69776;DHT22;57049;51.450;-2.516;2023-08-24T04:29:31;15.90;95.94
69776;DHT22;57049;51.450;-2.516;2023-08-24T04:31:57;15.86;95.98
69776;DHT22;57049;51.450;-2.516;2023-08-24T04:34:22;15.83;96.03
69776;DHT22;57049;51.450;-2.516;2023-08-24T04:36:48;15.82;96.13
69776;DHT22;57049;51.450;-2.516;2023-08-24T04:39:13;15.81;96.17
69776;DHT22;57049;51.450;-2.516;2023-08-24T04:41:39;15.79;96.20
69776;DHT22;57049;51.450;-2.516;2023-08-24T04:44:04;15.81;96.14
69776;DHT22;57049;51.450;-2.516;2023-08-24T04:46:30;15.82;96.22
69776;DHT22;57049;51.450;-2.516;2023-08-24T04:48:55;15.85;96.24
69776;DHT22;57049;51.450;-2.516;2023-08-24T04:51:21;15.81;96.21
69776;DHT22;57049;51.450;-2.516;2023-08-24T04:53:46;15.82;96.22
69776;DHT22;57049;51.450;-2.516;2023-08-24T04:56:12;15.82;96.13
69776;DHT22;57049;51.450;-2.516;2023-08-24T04:58:37;15.79;96.11
69776;DHT22;57049;51.450;-2.516;2023-08-24T05:01:02;15.78;95.92
69776;DHT22;57049;51.450;-2.516;2023-08-24T05:03:28;15.79;95.89
69776;DHT22;57049;51.450;-2.516;2023-08-24T05:05:53;15.76;95.99
69776;DHT22;57049;51.450;-2.516;2023-08-24T05:08:19;15.73;96.10
69776;DHT22;57049;51.450;-2.516;2023-08-24T05:10:44;15.70;96.03
69776;DHT22;57049;51.450;-2.516;2023-08-24T05:13:10;15.70;96.11
69776;DHT22;57049;51.450;-2.516;2023-08-24T05:15:36;15.67;95.99
69776;DHT22;57049;51.450;-2.516;2023-08-24T05:18:01;15.66;95.93
69776;DHT22;57049;51.450;-2.516;2023-08-24T05:20:27;15.63;96.08
69776;DHT22;57049;51.450;-2.516;2023-08-24T05:22:52;15.63;96.22
69776;DHT22;57049;51.450;-2.516;2023-08-24T05:25:20;15.61;96.21
69776;DHT22;57049;51.450;-2.516;2023-08-24T05:27:46;15.62;96.29
69776;DHT22;57049;51.450;-2.516;2023-08-24T05:30:12;15.59;96.50
69776;DHT22;57049;51.450;-2.516;2023-08-24T05:32:37;15.62;96.42
69776;DHT22;57049;51.450;-2.516;2023-08-24T05:35:07;15.62;96.37
69776;DHT22;57049;51.450;-2.516;2023-08-24T05:37:33;15.67;96.41
69776;DHT22;57049;51.450;-2.516;2023-08-24T05:40:02;15.73;96.34
69776;DHT22;57049;51.450;-2.516;2023-08-24T05:42:28;15.78;96.31
69776;DHT22;57049;51.450;-2.516;2023-08-24T05:44:53;15.81;96.20
69776;DHT22;57049;51.450;-2.516;2023-08-24T05:47:19;15.93;95.83
69776;DHT22;57049;51.450;-2.516;2023-08-24T05:49:44;16.00;95.60
69776;DHT22;57049;51.450;-2.516;2023-08-24T05:52:10;16.02;95.41
69776;DHT22;57049;51.450;-2.516;2023-08-24T05:54:37;16.05;95.47
69776;DHT22;57049;51.450;-2.516;2023-08-24T05:57:03;16.07;95.68
69776;DHT22;57049;51.450;-2.516;2023-08-24T05:59:29;16.12;95.68
69776;DHT22;57049;51.450;-2.516;2023-08-24T06:01:54;16.14;95.51
69776;DHT22;57049;51.450;-2.516;2023-08-24T06:04:20;16.16;95.41
69776;DHT22;57049;51.450;-2.516;2023-08-24T06:06:45;16.16;95.30
69776;DHT22;57049;51.450;-2.516;2023-08-24T06:09:11;16.18;95.23
69776;DHT22;57049;51.450;-2.516;2023-08-24T06:11:36;16.23;95.23
69776;DHT22;57049;51.450;-2.516;2023-08-24T06:14:02;16.24;95.13
69776;DHT22;57049;51.450;-2.516;2023-08-24T06:16:30;16.27;95.22
69776;DHT22;57049;51.450;-2.516;2023-08-24T06:18:55;16.34;95.08
69776;DHT22;57049;51.450;-2.516;2023-08-24T06:21:21;16.36;95.04
69776;DHT22;57049;51.450;-2.516;2023-08-24T06:23:46;16.37;94.80
69776;DHT22;57049;51.450;-2.516;2023-08-24T06:26:13;16.44;94.87
69776;DHT22;57049;51.450;-2.516;2023-08-24T06:28:39;16.51;95.01
69776;DHT22;57049;51.450;-2.516;2023-08-24T06:31:04;16.57;94.97
69776;DHT22;57049;51.450;-2.516;2023-08-24T06:33:36;16.64;94.72
69776;DHT22;57049;51.450;-2.516;2023-08-24T06:36:03;16.71;94.51
69776;DHT22;57049;51.450;-2.516;2023-08-24T06:38:31;16.79;93.81
69776;DHT22;57049;51.450;-2.516;2023-08-24T06:40:58;16.87;93.57
69776;DHT22;57049;51.450;-2.516;2023-08-24T06:43:23;17.02;93.32
69776;DHT22;57049;51.450;-2.516;2023-08-24T06:45:49;17.18;92.80
69776;DHT22;57049;51.450;-2.516;2023-08-24T06:48:14;17.32;92.81
69776;DHT22;57049;51.450;-2.516;2023-08-24T06:50:39;17.39;92.64
69776;DHT22;57049;51.450;-2.516;2023-08-24T06:53:06;17.43;91.98
69776;DHT22;57049;51.450;-2.516;2023-08-24T06:55:31;17.45;91.52
69776;DHT22;57049;51.450;-2.516;2023-08-24T06:57:57;17.47;91.70
69776;DHT22;57049;51.450;-2.516;2023-08-24T07:00:22;17.49;91.17
69776;DHT22;57049;51.450;-2.516;2023-08-24T07:02:49;17.59;90.73
69776;DHT22;57049;51.450;-2.516;2023-08-24T07:05:15;17.60;90.59
69776;DHT22;57049;51.450;-2.516;2023-08-24T07:07:44;17.62;90.31
69776;DHT22;57049;51.450;-2.516;2023-08-24T07:10:10;17.65;90.12
69776;DHT22;57049;51.450;-2.516;2023-08-24T07:12:35;17.79;89.86
69776;DHT22;57049;51.450;-2.516;2023-08-24T07:15:01;17.83;89.03
69776;DHT22;57049;51.450;-2.516;2023-08-24T07:17:27;18.01;88.39
69776;DHT22;57049;51.450;-2.516;2023-08-24T07:19:52;17.91;87.69
69776;DHT22;57049;51.450;-2.516;2023-08-24T07:22:18;17.93;87.81
69776;DHT22;57049;51.450;-2.516;2023-08-24T07:24:44;17.87;87.03
69776;DHT22;57049;51.450;-2.516;2023-08-24T07:27:10;17.83;86.96
69776;DHT22;57049;51.450;-2.516;2023-08-24T07:29:35;17.91;87.36
69776;DHT22;57049;51.450;-2.516;2023-08-24T07:32:01;18.07;87.30
69776;DHT22;57049;51.450;-2.516;2023-08-24T07:34:26;18.24;87.81
69776;DHT22;57049;51.450;-2.516;2023-08-24T07:36:52;18.35;86.96
69776;DHT22;57049;51.450;-2.516;2023-08-24T07:39:18;18.47;86.63
69776;DHT22;57049;51.450;-2.516;2023-08-24T07:41:44;18.52;85.48
69776;DHT22;57049;51.450;-2.516;2023-08-24T07:44:10;18.71;85.33
69776;DHT22;57049;51.450;-2.516;2023-08-24T07:46:36;19.63;83.40
69776;DHT22;57049;51.450;-2.516;2023-08-24T07:49:01;20.07;82.59
69776;DHT22;57049;51.450;-2.516;2023-08-24T07:51:26;20.45;80.55
69776;DHT22;57049;51.450;-2.516;2023-08-24T07:53:53;20.79;79.58
69776;DHT22;57049;51.450;-2.516;2023-08-24T07:56:19;20.77;79.26
69776;DHT22;57049;51.450;-2.516;2023-08-24T07:58:44;20.50;78.57
69776;DHT22;57049;51.450;-2.516;2023-08-24T08:01:11;20.55;78.15
69776;DHT22;57049;51.450;-2.516;2023-08-24T08:03:36;20.49;76.02
69776;DHT22;57049;51.450;-2.516;2023-08-24T08:06:02;21.04;75.01
69776;DHT22;57049;51.450;-2.516;2023-08-24T08:08:28;21.21;72.96
69776;DHT22;57049;51.450;-2.516;2023-08-24T08:11:01;21.18;69.51
69776;DHT22;57049;51.450;-2.516;2023-08-24T08:13:30;21.00;70.37
69776;DHT22;57049;51.450;-2.516;2023-08-24T08:16:06;22.02;69.54
69776;DHT22;57049;51.450;-2.516;2023-08-24T08:18:33;22.68;65.49
69776;DHT22;57049;51.450;-2.516;2023-08-24T08:20:58;23.75;62.21
69776;DHT22;57049;51.450;-2.516;2023-08-24T08:23:24;24.05;60.23
69776;DHT22;57049;51.450;-2.516;2023-08-24T08:25:49;24.38;61.22
69776;DHT22;57049;51.450;-2.516;2023-08-24T08:28:16;24.09;59.92
69776;DHT22;57049;51.450;-2.516;2023-08-24T08:30:43;23.46;60.52
69776;DHT22;57049;51.450;-2.516;2023-08-24T08:33:08;23.18;61.02
69776;DHT22;57049;51.450;-2.516;2023-08-24T08:35:34;22.42;63.06
69776;DHT22;57049;51.450;-2.516;2023-08-24T08:37:59;22.47;65.45
69776;DHT22;57049;51.450;-2.516;2023-08-24T08:40:26;22.61;65.87
69776;DHT22;57049;51.450;-2.516;2023-08-24T08:42:57;22.73;64.96
69776;DHT22;57049;51.450;-2.516;2023-08-24T08:45:25;22.88;64.36
69776;DHT22;57049;51.450;-2.516;2023-08-24T08:47:59;23.16;64.20
69776;DHT22;57049;51.450;-2.516;2023-08-24T08:50:25;23.07;63.75
69776;DHT22;57049;51.450;-2.516;2023-08-24T08:52:50;22.81;64.52
69776;DHT22;57049;51.450;-2.516;2023-08-24T08:55:17;22.52;62.73
69776;DHT22;57049;51.450;-2.516;2023-08-24T08:57:43;22.33;63.11
69776;DHT22;57049;51.450;-2.516;2023-08-24T09:00:10;22.70;65.97
69776;DHT22;57049;51.450;-2.516;2023-08-24T09:02:38;22.91;63.80
69776;DHT22;57049;51.450;-2.516;2023-08-24T09:05:05;23.37;62.37
69776;DHT22;57049;51.450;-2.516;2023-08-24T09:07:32;23.29;60.02
69776;DHT22;57049;51.450;-2.516;2023-08-24T09:09:59;23.03;60.80
69776;DHT22;57049;51.450;-2.516;2023-08-24T09:12:25;23.11;60.46
69776;DHT22;57049;51.450;-2.516;2023-08-24T09:14:50;23.11;58.04
69776;DHT22;57049;51.450;-2.516;2023-08-24T09:17:21;23.38;59.92
69776;DHT22;57049;51.450;-2.516;2023-08-24T09:19:49;22.94;56.94
69776;DHT22;57049;51.450;-2.516;2023-08-24T09:22:15;23.39;60.68
69776;DHT22;57049;51.450;-2.516;2023-08-24T09:24:40;23.48;60.18
69776;DHT22;57049;51.450;-2.516;2023-08-24T09:27:20;23.82;58.86
69776;DHT22;57049;51.450;-2.516;2023-08-24T09:29:50;23.56;56.61
69776;DHT22;57049;51.450;-2.516;2023-08-24T09:32:21;23.45;57.53
69776;DHT22;57049;51.450;-2.516;2023-08-24T09:34:47;22.91;58.15
69776;DHT22;57049;51.450;-2.516;2023-08-24T09:37:14;23.18;61.09
69776;DHT22;57049;51.450;-2.516;2023-08-24T09:39:40;23.42;61.10
69776;DHT22;57049;51.450;-2.516;2023-08-24T09:42:06;23.46;61.05
69776;DHT22;57049;51.450;-2.516;2023-08-24T09:44:31;23.59;60.16
69776;DHT22;57049;51.450;-2.516;2023-08-24T09:46:57;23.48;60.28
69776;DHT22;57049;51.450;-2.516;2023-08-24T09:49:23;23.55;62.11
69776;DHT22;57049;51.450;-2.516;2023-08-24T09:51:49;23.67;60.16
69776;DHT22;57049;51.450;-2.516;2023-08-24T09:54:16;23.58;60.62
69776;DHT22;57049;51.450;-2.516;2023-08-24T09:56:45;23.44;60.91
69776;DHT22;57049;51.450;-2.516;2023-08-24T09:59:16;23.44;62.04
69776;DHT22;57049;51.450;-2.516;2023-08-24T10:01:48;23.38;61.81
69776;DHT22;57049;51.450;-2.516;2023-08-24T10:04:15;23.46;61.05
69776;DHT22;57049;51.450;-2.516;2023-08-24T10:06:42;23.58;61.56
69776;DHT22;57049;51.450;-2.516;2023-08-24T10:09:16;23.58;60.41
69776;DHT22;57049;51.450;-2.516;2023-08-24T10:11:50;23.69;59.55
69776;DHT22;57049;51.450;-2.516;2023-08-24T10:14:30;23.29;60.61
69776;DHT22;57049;51.450;-2.516;2023-08-24T10:16:56;23.34;61.40
69776;DHT22;57049;51.450;-2.516;2023-08-24T10:19:23;23.42;62.14
69776;DHT22;57049;51.450;-2.516;2023-08-24T10:21:50;23.32;61.15
69776;DHT22;57049;51.450;-2.516;2023-08-24T10:24:17;23.39;61.45
69776;DHT22;57049;51.450;-2.516;2023-08-24T10:26:46;23.65;60.13
69776;DHT22;57049;51.450;-2.516;2023-08-24T10:29:11;23.83;61.51
69776;DHT22;57049;51.450;-2.516;2023-08-24T10:31:40;23.69;60.04
69776;DHT22;57049;51.450;-2.516;2023-08-24T10:34:07;23.99;59.26
69776;DHT22;57049;51.450;-2.516;2023-08-24T10:36:33;24.17;57.54
69776;DHT22;57049;51.450;-2.516;2023-08-24T10:39:02;24.44;57.15
69776;DHT22;57049;51.450;-2.516;2023-08-24T10:41:52;24.53;56.96
69776;DHT22;57049;51.450;-2.516;2023-08-24T10:44:23;24.65;56.32
69776;DHT22;57049;51.450;-2.516;2023-08-24T10:47:14;24.64;54.75
69776;DHT22;57049;51.450;-2.516;2023-08-24T10:49:56;24.57;55.18
69776;DHT22;57049;51.450;-2.516;2023-08-24T10:52:35;24.38;56.80
69776;DHT22;57049;51.450;-2.516;2023-08-24T10:55:03;24.36;58.23
69776;DHT22;57049;51.450;-2.516;2023-08-24T10:57:37;24.38;58.37
69776;DHT22;57049;51.450;-2.516;2023-08-24T11:00:10;24.31;57.56
69776;DHT22;57049;51.450;-2.516;2023-08-24T11:02:43;24.12;57.43
69776;DHT22;57049;51.450;-2.516;2023-08-24T11:07:55;23.73;56.04
69776;DHT22;57049;51.450;-2.516;2023-08-24T11:10:22;23.63;54.90
69776;DHT22;57049;51.450;-2.516;2023-08-24T11:15:33;23.86;56.25
69776;DHT22;57049;51.450;-2.516;2023-08-24T11:18:22;23.95;59.12
69776;DHT22;57049;51.450;-2.516;2023-08-24T11:20:55;23.96;56.04
69776;DHT22;57049;51.450;-2.516;2023-08-24T11:23:22;23.99;58.53
69776;DHT22;57049;51.450;-2.516;2023-08-24T11:25:53;23.97;57.89
69776;DHT22;57049;51.450;-2.516;2023-08-24T11:28:25;23.96;56.49
69776;DHT22;57049;51.450;-2.516;2023-08-24T11:30:51;23.93;56.51
69776;DHT22;57049;51.450;-2.516;2023-08-24T11:33:26;23.90;57.43
69776;DHT22;57049;51.450;-2.516;2023-08-24T11:35:53;23.90;58.51
69776;DHT22;57049;51.450;-2.516;2023-08-24T11:38:18;24.10;57.45
69776;DHT22;57049;51.450;-2.516;2023-08-24T11:40:47;24.40;57.87
69776;DHT22;57049;51.450;-2.516;2023-08-24T11:43:12;24.50;58.11
69776;DHT22;57049;51.450;-2.516;2023-08-24T11:45:46;24.58;58.32
69776;DHT22;57049;51.450;-2.516;2023-08-24T11:48:11;24.67;56.57
69776;DHT22;57049;51.450;-2.516;2023-08-24T11:50:37;24.67;58.26
69776;DHT22;57049;51.450;-2.516;2023-08-24T11:53:06;24.96;58.18
69776;DHT22;57049;51.450;-2.516;2023-08-24T11:55:32;24.85;58.98
69776;DHT22;57049;51.450;-2.516;2023-08-24T11:57:57;24.88;58.94
69776;DHT22;57049;51.450;-2.516;2023-08-24T12:00:24;24.84;59.82
69776;DHT22;57049;51.450;-2.516;2023-08-24T12:02:50;24.26;57.78
69776;DHT22;57049;51.450;-2.516;2023-08-24T12:05:23;24.34;59.50
69776;DHT22;57049;51.450;-2.516;2023-08-24T12:07:49;24.17;59.84
69776;DHT22;57049;51.450;-2.516;2023-08-24T12:10:15;24.17;60.76
69776;DHT22;57049;51.450;-2.516;2023-08-24T12:12:40;24.44;61.46
69776;DHT22;57049;51.450;-2.516;2023-08-24T12:15:06;24.50;61.43
69776;DHT22;57049;51.450;-2.516;2023-08-24T12:17:42;24.61;63.13
69776;DHT22;57049;51.450;-2.516;2023-08-24T12:20:17;24.84;62.84
69776;DHT22;57049;51.450;-2.516;2023-08-24T12:22:42;24.61;62.34
69776;DHT22;57049;51.450;-2.516;2023-08-24T12:25:08;24.46;64.04
69776;DHT22;57049;51.450;-2.516;2023-08-24T12:27:34;24.27;64.28
69776;DHT22;57049;51.450;-2.516;2023-08-24T12:30:02;24.60;63.81
69776;DHT22;57049;51.450;-2.516;2023-08-24T12:32:45;24.89;63.77
69776;DHT22;57049;51.450;-2.516;2023-08-24T12:35:13;25.15;61.97
69776;DHT22;57049;51.450;-2.516;2023-08-24T12:37:39;24.65;62.77
69776;DHT22;57049;51.450;-2.516;2023-08-24T12:40:06;24.21;65.02
69776;DHT22;57049;51.450;-2.516;2023-08-24T12:42:31;24.27;66.32
69776;DHT22;57049;51.450;-2.516;2023-08-24T12:44:57;24.05;66.02
69776;DHT22;57049;51.450;-2.516;2023-08-24T12:47:22;24.30;66.00
69776;DHT22;57049;51.450;-2.516;2023-08-24T12:49:48;24.51;66.55
69776;DHT22;57049;51.450;-2.516;2023-08-24T12:52:13;24.48;66.67
69776;DHT22;57049;51.450;-2.516;2023-08-24T12:54:39;24.56;67.60
69776;DHT22;57049;51.450;-2.516;2023-08-24T12:57:04;24.38;66.79
69776;DHT22;57049;51.450;-2.516;2023-08-24T12:59:30;24.48;67.04
69776;DHT22;57049;51.450;-2.516;2023-08-24T13:01:55;24.61;65.94
69776;DHT22;57049;51.450;-2.516;2023-08-24T13:04:21;24.09;63.31
69776;DHT22;57049;51.450;-2.516;2023-08-24T13:06:46;23.92;64.56
69776;DHT22;57049;51.450;-2.516;2023-08-24T13:09:12;23.80;63.77
69776;DHT22;57049;51.450;-2.516;2023-08-24T13:11:39;23.77;64.89
69776;DHT22;57049;51.450;-2.516;2023-08-24T13:14:04;23.58;65.64
69776;DHT22;57049;51.450;-2.516;2023-08-24T13:16:30;23.99;67.35
69776;DHT22;57049;51.450;-2.516;2023-08-24T13:18:56;23.77;64.92
69776;DHT22;57049;51.450;-2.516;2023-08-24T13:21:24;24.10;67.42
69776;DHT22;57049;51.450;-2.516;2023-08-24T13:23:50;24.09;65.86
69776;DHT22;57049;51.450;-2.516;2023-08-24T13:26:20;24.34;66.20
69776;DHT22;57049;51.450;-2.516;2023-08-24T13:28:49;24.33;65.25
69776;DHT22;57049;51.450;-2.516;2023-08-24T13:31:15;24.27;62.94
69776;DHT22;57049;51.450;-2.516;2023-08-24T13:33:40;24.47;65.46
69776;DHT22;57049;51.450;-2.516;2023-08-24T13:36:06;24.57;65.22
69776;DHT22;57049;51.450;-2.516;2023-08-24T13:38:31;24.33;64.66
69776;DHT22;57049;51.450;-2.516;2023-08-24T13:40:57;24.54;64.28
69776;DHT22;57049;51.450;-2.516;2023-08-24T13:43:22;24.75;64.89
69776;DHT22;57049;51.450;-2.516;2023-08-24T13:45:48;24.84;64.80
69776;DHT22;57049;51.450;-2.516;2023-08-24T13:48:13;24.94;65.35
69776;DHT22;57049;51.450;-2.516;2023-08-24T13:50:41;24.74;64.38
69776;DHT22;57049;51.450;-2.516;2023-08-24T13:53:06;24.82;64.03
69776;DHT22;57049;51.450;-2.516;2023-08-24T13:55:32;24.89;64.73
69776;DHT22;57049;51.450;-2.516;2023-08-24T13:57:57;24.82;63.50
69776;DHT22;57049;51.450;-2.516;2023-08-24T14:00:23;24.78;63.71
69776;DHT22;57049;51.450;-2.516;2023-08-24T14:02:49;24.69;63.28
69776;DHT22;57049;51.450;-2.516;2023-08-24T14:05:15;24.56;62.94
69776;DHT22;57049;51.450;-2.516;2023-08-24T14:07:40;24.57;63.65
69776;DHT22;57049;51.450;-2.516;2023-08-24T14:10:06;24.69;63.84
69776;DHT22;57049;51.450;-2.516;2023-08-24T14:12:33;24.61;61.85
69776;DHT22;57049;51.450;-2.516;2023-08-24T14:14:59;24.72;61.87
69776;DHT22;57049;51.450;-2.516;2023-08-24T14:17:24;24.65;61.84
69776;DHT22;57049;51.450;-2.516;2023-08-24T14:19:50;24.71;62.72
69776;DHT22;57049;51.450;-2.516;2023-08-24T14:22:15;24.71;62.77
69776;DHT22;57049;51.450;-2.516;2023-08-24T14:24:41;24.65;62.76
69776;DHT22;57049;51.450;-2.516;2023-08-24T14:27:06;24.69;62.93
69776;DHT22;57049;51.450;-2.516;2023-08-24T14:29:31;24.50;62.70
69776;DHT22;57049;51.450;-2.516;2023-08-24T14:31:57;24.38;63.33
69776;DHT22;57049;51.450;-2.516;2023-08-24T14:34:23;24.46;63.47
69776;DHT22;57049;51.450;-2.516;2023-08-24T14:36:48;24.44;63.65
69776;DHT22;57049;51.450;-2.516;2023-08-24T14:39:13;24.53;62.71
69776;DHT22;57049;51.450;-2.516;2023-08-24T14:41:39;24.61;62.45
69776;DHT22;57049;51.450;-2.516;2023-08-24T14:44:04;24.61;62.21
69776;DHT22;57049;51.450;-2.516;2023-08-24T14:46:30;24.50;62.30
69776;DHT22;57049;51.450;-2.516;2023-08-24T14:48:55;24.51;61.57
69776;DHT22;57049;51.450;-2.516;2023-08-24T14:51:21;24.46;62.12
69776;DHT22;57049;51.450;-2.516;2023-08-24T14:53:46;24.36;62.57
69776;DHT22;57049;51.450;-2.516;2023-08-24T14:56:12;24.10;63.11
69776;DHT22;57049;51.450;-2.516;2023-08-24T14:58:37;23.85;64.08
69776;DHT22;57049;51.450;-2.516;2023-08-24T15:01:03;23.51;64.86
69776;DHT22;57049;51.450;-2.516;2023-08-24T15:03:28;23.24;65.60
69776;DHT22;57049;51.450;-2.516;2023-08-24T15:05:59;23.00;65.37
69776;DHT22;57049;51.450;-2.516;2023-08-24T15:08:25;22.98;66.57
69776;DHT22;57049;51.450;-2.516;2023-08-24T15:10:50;22.98;66.96
69776;DHT22;57049;51.450;-2.516;2023-08-24T15:13:16;22.88;68.99
69776;DHT22;57049;51.450;-2.516;2023-08-24T15:15:41;22.83;68.34
69776;DHT22;57049;51.450;-2.516;2023-08-24T15:18:09;22.60;70.15
69776;DHT22;57049;51.450;-2.516;2023-08-24T15:20:35;22.46;70.91
69776;DHT22;57049;51.450;-2.516;2023-08-24T15:23:00;22.20;71.81